createdAt,value
2023-04-23T00:02:22.884Z,2.45
2023-04-23T00:06:26.791Z,2.20
2023-04-23T00:10:29.833Z,2.25
2023-04-23T00:14:34.505Z,2.50
2023-04-23T00:18:37.592Z,2.85
2023-04-23T00:22:40.444Z,2.40
2023-04-23T00:26:43.262Z,2.42
2023-04-23T00:30:47.493Z,2.60
2023-04-23T00:34:50.274Z,2.55
2023-04-23T00:38:53.683Z,3.20
2023-04-23T00:42:58.122Z,2.50
2023-04-23T00:47:03.136Z,3.08
2023-04-23T00:51:07.251Z,2.75
2023-04-23T00:55:10.917Z,3.45
2023-04-23T00:59:13.836Z,2.88
2023-04-23T01:03:18.466Z,2.60
2023-04-23T01:07:22.400Z,2.35
2023-04-23T01:11:25.470Z,2.72
2023-04-23T01:15:28.416Z,2.15
2023-04-23T01:19:32.768Z,3.03
2023-04-23T01:23:37.080Z,3.13
2023-04-23T01:27:40.371Z,3.22
2023-04-23T01:31:43.991Z,2.70
2023-04-23T01:35:49.349Z,2.53
2023-04-23T01:39:53.709Z,2.65
2023-04-23T01:43:58.237Z,2.40
2023-04-23T01:48:01.471Z,2.60
2023-04-23T01:52:04.560Z,3.30
2023-04-23T01:56:10.678Z,2.72
2023-04-23T02:00:15.099Z,3.30
2023-04-23T02:04:19.386Z,2.67
2023-04-23T02:08:22.353Z,2.70
2023-04-23T02:12:26.849Z,2.65
2023-04-23T02:16:29.709Z,3.13
2023-04-23T02:20:32.628Z,2.67
2023-04-23T02:24:35.398Z,3.00
2023-04-23T02:28:39.860Z,3.28
2023-04-23T02:32:43.935Z,2.83
2023-04-23T02:36:46.950Z,2.60
2023-04-23T02:40:49.784Z,2.60
2023-04-23T02:44:53.938Z,2.70
2023-04-23T02:48:56.702Z,2.42
2023-04-23T02:52:59.454Z,2.70
2023-04-23T02:57:03.456Z,2.80
2023-04-23T03:01:07.944Z,2.85
2023-04-23T03:05:11.124Z,2.80
2023-04-23T03:09:13.911Z,2.30
2023-04-23T03:13:16.975Z,2.30
2023-04-23T03:17:21.144Z,2.67
2023-04-23T03:21:24.062Z,2.63
2023-04-23T03:25:27.176Z,2.60
2023-04-23T03:29:30.033Z,2.40
2023-04-23T03:33:34.200Z,2.55
2023-04-23T03:37:37.905Z,3.05
2023-04-23T03:41:41.917Z,2.78
2023-04-23T03:45:47.191Z,2.95
2023-04-23T03:49:51.412Z,2.90
2023-04-23T03:53:54.525Z,2.72
2023-04-23T03:58:06.172Z,2.38
2023-04-23T04:02:19.574Z,2.70
2023-04-23T04:06:23.763Z,2.70
2023-04-23T04:10:26.717Z,2.88
2023-04-23T04:14:29.515Z,2.50
2023-04-23T04:18:32.303Z,3.05
2023-04-23T04:22:36.427Z,3.15
2023-04-23T04:26:39.675Z,3.40
2023-04-23T04:30:42.605Z,3.55
2023-04-23T04:34:45.377Z,3.25
2023-04-23T04:38:50.977Z,3.10
2023-04-23T04:42:55.068Z,3.57
2023-04-23T04:46:58.032Z,3.58
2023-04-23T04:51:00.878Z,3.30
2023-04-23T04:55:06.761Z,3.90
2023-04-23T04:59:09.588Z,3.10
2023-04-23T05:03:14.426Z,3.53
2023-04-23T05:07:17.503Z,3.50
2023-04-23T05:11:21.893Z,3.58
2023-04-23T05:15:24.721Z,3.53
2023-04-23T05:19:27.560Z,3.67
2023-04-23T05:23:30.342Z,3.80
2023-04-23T05:27:34.656Z,3.50
2023-04-23T05:31:37.491Z,3.92
2023-04-23T05:35:40.557Z,4.35
2023-04-23T05:39:44.570Z,4.38
2023-04-23T05:43:48.741Z,4.13
2023-04-23T05:47:51.673Z,3.97
2023-04-23T05:51:54.612Z,4.72
2023-04-23T05:55:57.407Z,4.30
2023-04-23T06:00:01.524Z,4.32
2023-04-23T06:04:04.705Z,4.90
2023-04-23T06:08:07.832Z,5.63
2023-04-23T06:12:11.005Z,4.45
2023-04-23T06:16:15.133Z,5.63
2023-04-23T06:20:17.945Z,4.53
2023-04-23T06:24:21.034Z,5.43
2023-04-23T06:28:24.078Z,5.53
2023-04-23T06:32:48.226Z,5.57
2023-04-23T06:36:51.751Z,5.13
2023-04-23T06:40:54.579Z,4.32
2023-04-23T06:44:59.455Z,6.85
2023-04-23T06:49:03.720Z,5.18
2023-04-23T06:53:06.591Z,4.93
2023-04-23T06:57:09.341Z,5.03
2023-04-23T07:01:12.324Z,5.25
2023-04-23T07:05:18.816Z,4.45
2023-04-23T07:09:21.709Z,4.95
2023-04-23T07:13:25.062Z,5.18
2023-04-23T07:17:27.926Z,4.43
2023-04-23T07:21:32.979Z,4.72
2023-04-23T07:25:35.773Z,4.10
2023-04-23T07:29:38.581Z,4.38
2023-04-23T07:33:41.482Z,5.40
2023-04-23T07:37:45.676Z,5.57
2023-04-23T07:41:48.562Z,4.32
2023-04-23T07:45:51.514Z,4.53
2023-04-23T07:49:54.356Z,5.18
2023-04-23T07:53:58.896Z,4.47
2023-04-23T07:58:01.668Z,4.35
2023-04-23T08:02:04.536Z,4.47
2023-04-23T08:06:07.774Z,3.95
2023-04-23T08:10:12.124Z,5.88
2023-04-23T08:14:15.122Z,4.20
2023-04-23T08:18:17.824Z,4.15
2023-04-23T08:22:21.996Z,3.60
2023-04-23T08:26:26.364Z,3.72
2023-04-23T08:30:29.146Z,3.50
2023-04-23T08:34:34.557Z,3.20
2023-04-23T08:38:38.567Z,3.42
2023-04-23T08:42:48.149Z,2.50
2023-04-23T08:46:51.560Z,2.63
2023-04-23T08:50:54.465Z,3.15
2023-04-23T08:55:02.464Z,2.90
2023-04-23T08:59:07.820Z,2.13
2023-04-23T09:03:11.143Z,2.47
2023-04-23T09:07:15.168Z,2.08
2023-04-23T09:11:18.928Z,2.10
2023-04-23T09:15:25.589Z,1.63
2023-04-23T09:19:30.425Z,1.40
2023-04-23T09:23:34.463Z,1.70
2023-04-23T09:27:37.929Z,2.15
2023-04-23T09:31:42.493Z,2.70
2023-04-23T09:35:47.980Z,1.70
2023-04-23T09:39:53.550Z,2.40
2023-04-23T09:43:57.289Z,2.13
2023-04-23T09:48:01.539Z,2.03
2023-04-23T09:52:07.868Z,2.20
2023-04-23T10:00:16.984Z,1.83
2023-04-23T10:04:23.456Z,2.10
2023-04-23T10:08:26.642Z,2.08
2023-04-23T10:12:44.606Z,2.38
2023-04-23T10:16:53.891Z,2.25
2023-04-23T10:20:59.361Z,3.05
2023-04-23T10:25:08.705Z,2.10
2023-04-23T10:29:16.229Z,2.00
2023-04-23T10:33:29.474Z,2.00
2023-04-23T10:37:35.804Z,1.90
2023-04-23T10:41:40.300Z,2.10
2023-04-23T10:45:44.694Z,1.95
2023-04-23T10:49:47.480Z,1.67
2023-04-23T10:53:53.058Z,1.83
2023-04-23T10:58:00.752Z,1.70
2023-04-23T11:02:08.182Z,1.73
2023-04-23T11:06:15.525Z,1.77
2023-04-23T11:10:19.862Z,1.80
2023-04-23T11:14:35.105Z,1.80
2023-04-23T11:18:55.903Z,1.48
2023-04-23T11:22:58.682Z,1.25
2023-04-23T11:27:02.942Z,1.50
2023-04-23T11:31:05.928Z,1.40
2023-04-23T11:35:11.441Z,1.88
2023-04-23T11:39:15.806Z,1.70
2023-04-23T11:43:22.599Z,1.67
2023-04-23T11:47:27.426Z,1.42
2023-04-23T11:51:30.810Z,1.50
2023-04-23T11:55:33.652Z,1.58
2023-04-23T11:59:37.858Z,1.40
2023-04-23T12:03:41.009Z,1.67
2023-04-23T12:07:43.905Z,1.70
2023-04-23T12:11:47.348Z,1.60
2023-04-23T12:15:53.067Z,1.70
2023-04-23T12:19:56.232Z,1.80
2023-04-23T12:23:59.299Z,1.67
2023-04-23T12:28:04.790Z,1.73
2023-04-23T12:32:12.364Z,1.90
2023-04-23T12:36:16.811Z,1.80
2023-04-23T12:40:19.934Z,1.80
2023-04-23T12:44:22.814Z,2.20
2023-04-23T12:48:26.940Z,1.70
2023-04-23T12:52:30.412Z,1.85
2023-04-23T12:56:33.238Z,1.92
2023-04-23T13:00:36.138Z,1.63
2023-04-23T13:04:40.258Z,1.70
2023-04-23T13:08:42.938Z,1.77
2023-04-23T13:12:45.810Z,2.00
2023-04-23T13:16:49.196Z,1.85
2023-04-23T13:20:53.557Z,2.00
2023-04-23T13:24:56.993Z,1.98
2023-04-23T13:28:59.891Z,2.28
2023-04-23T13:33:02.883Z,1.77
2023-04-23T13:37:09.244Z,1.67
2023-04-23T13:41:12.158Z,1.80
2023-04-23T13:45:15.255Z,1.67
2023-04-23T13:49:18.124Z,2.10
2023-04-23T13:53:22.364Z,1.90
2023-04-23T13:57:25.179Z,1.90
2023-04-23T14:01:28.018Z,2.05
2023-04-23T14:05:31.608Z,2.15
2023-04-23T14:09:35.893Z,2.45
2023-04-23T14:13:38.792Z,2.00
2023-04-23T14:17:42.997Z,2.10
2023-04-23T14:21:46.293Z,2.20
2023-04-23T14:25:54.823Z,1.83
2023-04-23T14:29:59.442Z,1.98
2023-04-23T14:34:02.230Z,2.53
2023-04-23T14:38:05.082Z,2.17
2023-04-23T14:42:09.456Z,1.92
2023-04-23T14:46:12.238Z,2.38
2023-04-23T14:50:17.038Z,1.90
2023-04-23T14:54:19.898Z,2.15
2023-04-23T14:58:27.307Z,2.00
2023-04-23T15:02:30.208Z,2.08
2023-04-23T15:06:33.368Z,2.33
2023-04-23T15:10:36.413Z,2.20
2023-04-23T15:14:40.728Z,2.47
2023-04-23T15:18:43.507Z,2.00
2023-04-23T15:22:47.780Z,2.33
2023-04-23T15:26:53.242Z,2.58
2023-04-23T15:30:57.392Z,2.30
2023-04-23T15:35:00.159Z,2.33
2023-04-23T15:39:02.985Z,2.30
2023-04-23T15:43:05.777Z,2.42
2023-04-23T15:47:10.004Z,2.80
2023-04-23T15:51:12.920Z,2.70
2023-04-23T15:55:15.758Z,2.70
2023-04-23T15:59:18.562Z,2.35
2023-04-23T16:03:22.879Z,2.47
2023-04-23T16:07:25.808Z,2.60
2023-04-23T16:11:28.690Z,2.90
2023-04-23T16:15:31.507Z,2.95
2023-04-23T16:19:35.649Z,2.83
2023-04-23T16:23:38.536Z,2.55
2023-04-23T16:27:41.647Z,3.15
2023-04-23T16:31:44.512Z,2.40
2023-04-23T16:35:48.706Z,2.70
2023-04-23T16:39:51.536Z,2.42
2023-04-23T16:43:54.388Z,2.30
2023-04-23T16:47:57.622Z,3.00
2023-04-23T16:52:03.712Z,2.75
2023-04-23T16:56:07.471Z,2.30
2023-04-23T17:00:12.433Z,2.60
2023-04-23T17:04:15.416Z,2.55
2023-04-23T17:08:19.794Z,2.55
2023-04-23T17:12:22.753Z,2.85
2023-04-23T17:16:26.621Z,3.20
2023-04-23T17:20:34.956Z,2.67
2023-04-23T17:24:39.359Z,2.50
2023-04-23T17:28:42.336Z,2.33
2023-04-23T17:32:45.417Z,2.97
2023-04-23T17:36:48.408Z,2.60
2023-04-23T17:40:53.466Z,2.90
2023-04-23T17:44:56.384Z,2.70
2023-04-23T17:49:27.491Z,3.42
2023-04-23T17:53:31.196Z,3.78
2023-04-23T17:57:35.436Z,3.20
2023-04-23T18:01:38.377Z,3.15
2023-04-23T18:05:41.240Z,3.00
2023-04-23T18:09:44.102Z,3.08
2023-04-23T18:13:49.859Z,2.88
2023-04-23T18:17:55.669Z,3.20
2023-04-23T18:22:02.022Z,3.33
2023-04-23T18:26:04.861Z,2.80
2023-04-23T18:30:11.799Z,2.95
2023-04-23T18:34:19.079Z,4.43
2023-04-23T18:38:26.164Z,2.15
2023-04-23T18:42:28.912Z,0.88
2023-04-23T18:46:33.226Z,1.02
2023-04-23T18:50:43.841Z,1.90
2023-04-23T18:54:46.600Z,1.30
2023-04-23T18:58:49.329Z,1.48
2023-04-23T19:02:53.619Z,1.70
2023-04-23T19:06:56.467Z,3.03
2023-04-23T19:10:59.250Z,1.58
2023-04-23T19:15:02.040Z,1.65
2023-04-23T19:19:06.274Z,1.75
2023-04-23T19:23:09.138Z,1.90
2023-04-23T19:27:12.012Z,1.30
2023-04-23T19:31:14.870Z,1.60
2023-04-23T19:35:19.280Z,1.80
2023-04-23T19:39:23.377Z,2.03
2023-04-23T19:43:26.220Z,1.70
2023-04-23T19:47:29.093Z,2.13
2023-04-23T19:51:35.545Z,1.70
2023-04-23T19:59:41.457Z,1.90
2023-04-23T20:03:47.597Z,1.95
2023-04-23T20:07:52.522Z,1.52
2023-04-23T20:11:55.374Z,1.80
2023-04-23T20:15:58.573Z,1.45
2023-04-23T20:20:43.157Z,1.73
2023-04-23T20:24:48.938Z,2.15
2023-04-23T20:28:51.820Z,1.80
2023-04-23T20:32:54.768Z,1.75
2023-04-23T20:36:59.467Z,1.58
2023-04-23T20:41:04.802Z,1.58
2023-04-23T20:45:09.479Z,2.47
2023-04-23T20:49:13.047Z,3.45
2023-04-23T20:53:15.867Z,2.38
2023-04-23T20:57:19.990Z,2.65
2023-04-23T21:01:22.823Z,3.08
2023-04-23T21:05:26.146Z,2.58
2023-04-23T21:09:28.943Z,2.33
2023-04-23T21:13:33.168Z,2.28
2023-04-23T21:17:36.078Z,1.90
2023-04-23T21:21:38.952Z,2.58
2023-04-23T21:25:41.822Z,1.95
2023-04-23T21:29:46.922Z,2.10
2023-04-23T21:33:49.682Z,1.80
2023-04-23T21:37:53.603Z,2.10
2023-04-23T21:41:56.443Z,1.85
2023-04-23T21:46:00.848Z,1.90
2023-04-23T21:50:05.076Z,1.70
2023-04-23T21:54:08.162Z,1.58
2023-04-23T21:58:17.464Z,1.50
2023-04-23T22:02:22.345Z,1.42
2023-04-23T22:06:25.475Z,2.13
2023-04-23T22:10:28.496Z,1.55
2023-04-23T22:14:32.174Z,1.50
2023-04-23T22:18:36.294Z,1.67
2023-04-23T22:22:40.977Z,1.52
2023-04-23T22:26:44.004Z,1.63
2023-04-23T22:30:47.141Z,1.42
2023-04-23T22:34:52.832Z,1.10
2023-04-23T22:38:55.767Z,1.30
2023-04-23T22:42:58.571Z,1.63
2023-04-23T22:47:01.371Z,1.23
2023-04-23T22:51:06.903Z,1.35
2023-04-23T22:55:10.218Z,1.03
2023-04-23T22:59:13.536Z,0.90
2023-04-23T23:03:16.474Z,1.30
2023-04-23T23:07:20.961Z,0.80
2023-04-23T23:11:23.769Z,1.27
2023-04-23T23:15:26.571Z,1.58
2023-04-23T23:19:30.957Z,1.05
2023-04-23T23:23:35.239Z,0.80
2023-04-23T23:27:38.107Z,1.25
2023-04-23T23:31:41.242Z,0.77
2023-04-23T23:35:44.079Z,0.82
2023-04-23T23:39:48.230Z,1.10
2023-04-23T23:43:51.018Z,0.80
2023-04-23T23:47:54.514Z,0.82
2023-04-23T23:51:57.900Z,0.98
2023-04-23T23:56:01.983Z,1.17
